createdAt,value
2018-04-14T00:00:53.311Z,1009.43
2018-04-14T00:01:53.301Z,1009.45
2018-04-14T00:02:53.294Z,1009.45
2018-04-14T00:03:53.290Z,1009.48
2018-04-14T00:04:53.287Z,1009.54
2018-04-14T00:05:53.294Z,1009.54
2018-04-14T00:06:53.292Z,1009.54
2018-04-14T00:07:53.291Z,1009.54
2018-04-14T00:08:53.285Z,1009.55
2018-04-14T00:09:53.276Z,1009.60
2018-04-14T00:10:53.266Z,1009.60
2018-04-14T00:11:53.264Z,1009.61
2018-04-14T00:12:53.262Z,1009.65
2018-04-14T00:13:53.269Z,1009.65
2018-04-14T00:14:53.255Z,1009.63
2018-04-14T00:15:53.270Z,1009.67
2018-04-14T00:16:53.246Z,1009.64
2018-04-14T00:17:53.242Z,1009.66
2018-04-14T00:18:53.239Z,1009.64
2018-04-14T00:19:53.248Z,1009.65
2018-04-14T00:20:53.233Z,1009.65
2018-04-14T00:21:53.228Z,1009.67
2018-04-14T00:22:53.235Z,1009.65
2018-04-14T00:23:53.219Z,1009.69
2018-04-14T00:24:53.219Z,1009.66
2018-04-14T00:25:53.233Z,1009.70
2018-04-14T00:26:53.222Z,1009.67
2018-04-14T00:27:53.221Z,1009.70
2018-04-14T00:28:53.205Z,1009.70
2018-04-14T00:29:53.211Z,1009.71
2018-04-14T00:30:53.197Z,1009.71
2018-04-14T00:31:53.205Z,1009.71
2018-04-14T00:32:53.191Z,1009.69
2018-04-14T00:33:53.190Z,1009.72
2018-04-14T00:34:53.185Z,1009.73
2018-04-14T00:35:53.193Z,1009.74
2018-04-14T00:36:53.188Z,1009.73
2018-04-14T00:37:53.185Z,1009.76
2018-04-14T00:38:53.184Z,1009.76
2018-04-14T00:39:53.164Z,1009.72
2018-04-14T00:40:53.162Z,1009.82
2018-04-14T00:41:53.173Z,1009.76
2018-04-14T00:42:53.157Z,1009.77
2018-04-14T00:43:53.153Z,1009.81
2018-04-14T00:44:53.185Z,1009.78
2018-04-14T00:45:53.150Z,1009.79
2018-04-14T00:46:53.145Z,1009.81
2018-04-14T00:47:53.138Z,1009.84
2018-04-14T00:48:53.188Z,1009.86
2018-04-14T00:49:53.160Z,1009.86
2018-04-14T00:50:53.135Z,1009.84
2018-04-14T00:51:53.138Z,1009.80
2018-04-14T00:52:53.121Z,1009.82
2018-04-14T00:53:53.132Z,1009.79
2018-04-14T00:54:53.126Z,1009.81
2018-04-14T00:55:53.114Z,1009.78
2018-04-14T00:56:53.124Z,1009.82
2018-04-14T00:57:53.110Z,1009.80
2018-04-14T00:58:53.103Z,1009.80
2018-04-14T00:59:53.113Z,1009.79
2018-04-14T01:00:53.097Z,1009.81
2018-04-14T01:01:53.097Z,1009.84
2018-04-14T01:02:53.092Z,1009.85
2018-04-14T01:03:53.110Z,1009.77
2018-04-14T01:04:53.082Z,1009.81
2018-04-14T01:05:53.080Z,1009.81
2018-04-14T01:06:53.077Z,1009.80
2018-04-14T01:07:53.099Z,1009.86
2018-04-14T01:08:53.074Z,1009.84
2018-04-14T01:09:53.084Z,1009.87
2018-04-14T01:10:53.068Z,1009.93
2018-04-14T01:11:53.062Z,1009.89
2018-04-14T01:12:53.066Z,1009.91
2018-04-14T01:13:53.060Z,1009.89
2018-04-14T01:14:53.054Z,1009.87
2018-04-14T01:15:53.053Z,1009.86
2018-04-14T01:16:53.049Z,1009.80
2018-04-14T01:17:53.056Z,1009.82
2018-04-14T01:18:53.040Z,1009.86
2018-04-14T01:19:53.040Z,1009.82
2018-04-14T01:20:53.034Z,1009.81
2018-04-14T01:21:53.047Z,1009.81
2018-04-14T01:22:53.027Z,1009.80
2018-04-14T01:23:53.025Z,1009.82
2018-04-14T01:24:53.032Z,1009.77
2018-04-14T01:25:53.020Z,1009.76
2018-04-14T01:26:53.027Z,1009.75
2018-04-14T01:27:53.026Z,1009.76
2018-04-14T01:28:53.010Z,1009.79
2018-04-14T01:29:53.018Z,1009.77
2018-04-14T01:30:53.012Z,1009.78
2018-04-14T01:31:53.011Z,1009.73
2018-04-14T01:32:53.001Z,1009.73
2018-04-14T01:33:52.992Z,1009.77
2018-04-14T01:34:52.990Z,1009.78
2018-04-14T01:35:52.991Z,1009.77
2018-04-14T01:36:52.995Z,1009.80
2018-04-14T01:37:52.981Z,1009.75
2018-04-14T01:38:52.982Z,1009.77
2018-04-14T01:39:52.992Z,1009.76
2018-04-14T01:40:52.971Z,1009.78
2018-04-14T01:41:52.968Z,1009.73
2018-04-14T01:42:52.966Z,1009.77
2018-04-14T01:43:52.972Z,1009.74
2018-04-14T01:44:52.981Z,1009.76
2018-04-14T01:45:52.980Z,1009.77
2018-04-14T01:46:52.963Z,1009.75
2018-04-14T01:47:52.953Z,1009.74
2018-04-14T01:48:52.951Z,1009.78
2018-04-14T01:49:52.950Z,1009.80
2018-04-14T01:50:52.957Z,1009.81
2018-04-14T01:51:52.950Z,1009.77
2018-04-14T01:52:52.951Z,1009.76
2018-04-14T01:53:52.941Z,1009.75
2018-04-14T01:54:52.944Z,1009.75
2018-04-14T01:55:52.932Z,1009.74
2018-04-14T01:56:52.937Z,1009.74
2018-04-14T01:57:52.935Z,1009.73
2018-04-14T01:58:52.916Z,1009.75
2018-04-14T01:59:52.943Z,1009.72
2018-04-14T02:00:52.921Z,1009.72
2018-04-14T02:01:52.920Z,1009.75
2018-04-14T02:02:52.908Z,1009.76
2018-04-14T02:03:52.915Z,1009.75
2018-04-14T02:04:52.900Z,1009.75
2018-04-14T02:05:52.913Z,1009.74
2018-04-14T02:06:52.895Z,1009.77
2018-04-14T02:07:52.915Z,1009.77
2018-04-14T02:08:52.895Z,1009.81
2018-04-14T02:09:52.893Z,1009.78
2018-04-14T02:10:52.884Z,1009.82
2018-04-14T02:11:52.887Z,1009.77
2018-04-14T02:12:52.901Z,1009.82
2018-04-14T02:13:52.871Z,1009.82
2018-04-14T02:14:52.868Z,1009.80
2018-04-14T02:15:52.881Z,1009.84
2018-04-14T02:16:52.876Z,1009.81
2018-04-14T02:17:52.871Z,1009.83
2018-04-14T02:18:52.868Z,1009.83
2018-04-14T02:19:52.865Z,1009.88
2018-04-14T02:20:52.861Z,1009.88
2018-04-14T02:21:52.847Z,1009.85
2018-04-14T02:22:52.864Z,1009.90
2018-04-14T02:23:52.839Z,1009.88
2018-04-14T02:24:52.836Z,1009.91
2018-04-14T02:25:52.854Z,1009.93
2018-04-14T02:26:52.827Z,1009.97
2018-04-14T02:27:52.831Z,1009.95
2018-04-14T02:28:52.835Z,1009.97
2018-04-14T02:29:52.832Z,1009.97
2018-04-14T02:30:52.829Z,1009.97
2018-04-14T02:31:52.829Z,1009.96
2018-04-14T02:32:52.826Z,1009.99
2018-04-14T02:33:52.804Z,1009.96
2018-04-14T02:34:52.815Z,1009.98
2018-04-14T02:35:52.811Z,1010.00
2018-04-14T02:36:52.816Z,1009.98
2018-04-14T02:37:52.797Z,1010.01
2018-04-14T02:38:52.801Z,1009.98
2018-04-14T02:39:52.809Z,1010.02
2018-04-14T02:40:52.782Z,1009.99
2018-04-14T02:44:36.824Z,1009.99
2018-04-14T02:45:36.838Z,1010.01
2018-04-14T02:46:36.807Z,1010.03
2018-04-14T02:47:36.805Z,1010.03
2018-04-14T02:48:36.798Z,1010.07
2018-04-14T02:49:36.798Z,1010.03
2018-04-14T02:50:36.999Z,1010.06
2018-04-14T02:51:36.804Z,1010.06
2018-04-14T02:52:36.789Z,1010.09
2018-04-14T02:53:36.803Z,1010.05
2018-04-14T02:54:36.792Z,1010.06
2018-04-14T02:55:36.777Z,1010.05
2018-04-14T02:56:36.795Z,1010.05
2018-04-14T02:57:36.776Z,1010.00
2018-04-14T02:58:36.769Z,1010.03
2018-04-14T02:59:36.767Z,1010.02
2018-04-14T03:00:36.766Z,1010.01
2018-04-14T03:01:36.764Z,1010.02
2018-04-14T03:02:36.772Z,1010.00
2018-04-14T03:03:36.756Z,1010.03
2018-04-14T03:04:36.762Z,1010.02
2018-04-14T03:05:36.748Z,1010.00
2018-04-14T03:06:36.746Z,1009.97
2018-04-14T03:07:36.742Z,1009.99
2018-04-14T03:08:36.740Z,1009.99
2018-04-14T03:09:36.737Z,1010.01
2018-04-14T03:10:36.733Z,1010.02
2018-04-14T03:11:36.731Z,1010.04
2018-04-14T03:12:36.730Z,1010.06
2018-04-14T03:13:36.724Z,1010.04
2018-04-14T03:14:36.722Z,1010.07
2018-04-14T03:15:36.725Z,1010.11
2018-04-14T03:16:36.725Z,1010.11
2018-04-14T03:17:36.714Z,1010.11
2018-04-14T03:18:36.713Z,1010.15
2018-04-14T03:19:36.705Z,1010.13
2018-04-14T03:20:36.715Z,1010.16
2018-04-14T03:21:36.704Z,1010.16
2018-04-14T03:22:36.696Z,1010.17
2018-04-14T03:23:36.692Z,1010.18
2018-04-14T03:24:36.693Z,1010.20
2018-04-14T03:25:36.689Z,1010.20
2018-04-14T03:26:36.687Z,1010.20
2018-04-14T03:27:36.707Z,1010.20
2018-04-14T03:28:36.678Z,1010.18
2018-04-14T03:29:36.676Z,1010.18
2018-04-14T03:30:36.680Z,1010.19
2018-04-14T03:31:36.873Z,1010.18
2018-04-14T03:32:36.700Z,1010.21
2018-04-14T03:33:36.662Z,1010.20
2018-04-14T03:34:36.683Z,1010.19
2018-04-14T03:35:36.667Z,1010.19
2018-04-14T03:36:36.652Z,1010.22
2018-04-14T03:37:36.664Z,1010.21
2018-04-14T03:38:36.645Z,1010.22
2018-04-14T03:39:36.640Z,1010.23
2018-04-14T03:40:36.639Z,1010.26
2018-04-14T03:41:36.634Z,1010.26
2018-04-14T03:42:36.632Z,1010.26
2018-04-14T03:43:36.639Z,1010.29
2018-04-14T03:44:36.630Z,1010.33
2018-04-14T03:45:36.623Z,1010.33
2018-04-14T03:46:36.641Z,1010.41
2018-04-14T03:47:36.615Z,1010.34
2018-04-14T03:48:36.611Z,1010.38
2018-04-14T03:49:36.608Z,1010.34
2018-04-14T03:50:36.602Z,1010.38
2018-04-14T03:51:36.612Z,1010.39
2018-04-14T03:52:36.602Z,1010.41
2018-04-14T03:53:36.595Z,1010.42
2018-04-14T03:54:36.589Z,1010.41
2018-04-14T03:55:36.585Z,1010.42
2018-04-14T03:56:36.582Z,1010.43
2018-04-14T03:57:36.581Z,1010.41
2018-04-14T03:58:36.574Z,1010.49
2018-04-14T03:59:36.570Z,1010.51
2018-04-14T04:00:36.571Z,1010.49
2018-04-14T04:01:36.769Z,1010.50
2018-04-14T04:02:36.560Z,1010.50
2018-04-14T04:03:36.557Z,1010.45
2018-04-14T04:04:36.558Z,1010.50
2018-04-14T04:05:36.549Z,1010.54
2018-04-14T04:06:36.547Z,1010.54
2018-04-14T04:07:36.542Z,1010.55
2018-04-14T04:08:36.543Z,1010.63
2018-04-14T04:09:36.536Z,1010.65
2018-04-14T04:10:36.544Z,1010.68
2018-04-14T04:11:36.549Z,1010.66
2018-04-14T04:12:36.526Z,1010.70
2018-04-14T04:13:36.522Z,1010.73
2018-04-14T04:14:36.528Z,1010.75
2018-04-14T04:15:36.560Z,1010.76
2018-04-14T04:16:36.512Z,1010.78
2018-04-14T04:17:36.509Z,1010.74
2018-04-14T04:18:36.503Z,1010.76
2018-04-14T04:19:36.500Z,1010.81
2018-04-14T04:20:36.496Z,1010.79
2018-04-14T04:21:36.493Z,1010.80
2018-04-14T04:22:36.492Z,1010.78
2018-04-14T04:23:36.486Z,1010.85
2018-04-14T04:24:36.486Z,1010.81
2018-04-14T04:25:36.478Z,1010.81
2018-04-14T04:26:36.475Z,1010.82
2018-04-14T04:27:36.470Z,1010.84
2018-04-14T04:28:36.477Z,1010.82
2018-04-14T04:29:36.467Z,1010.86
2018-04-14T04:30:36.460Z,1010.85
2018-04-14T04:31:36.455Z,1010.89
2018-04-14T04:32:36.454Z,1010.90
2018-04-14T04:33:36.466Z,1010.91
2018-04-14T04:34:36.461Z,1010.91
2018-04-14T04:35:36.462Z,1010.93
2018-04-14T04:36:36.440Z,1010.94
2018-04-14T04:37:36.437Z,1010.95
2018-04-14T04:38:36.433Z,1011.00
2018-04-14T04:39:36.429Z,1011.03
2018-04-14T04:40:36.427Z,1011.03
2018-04-14T04:41:36.426Z,1011.09
2018-04-14T04:42:36.423Z,1011.12
2018-04-14T04:43:36.416Z,1011.11
2018-04-14T04:44:36.417Z,1011.09
2018-04-14T04:45:36.427Z,1011.06
2018-04-14T04:46:36.415Z,1011.09
2018-04-14T04:47:36.406Z,1011.15
2018-04-14T04:48:36.398Z,1011.18
2018-04-14T04:49:36.401Z,1011.17
2018-04-14T04:50:36.394Z,1011.21
2018-04-14T04:51:36.433Z,1011.24
2018-04-14T04:52:36.388Z,1011.22
2018-04-14T04:53:36.407Z,1011.21
2018-04-14T04:54:36.381Z,1011.17
2018-04-14T04:55:36.378Z,1011.18
2018-04-14T04:56:36.386Z,1011.23
2018-04-14T04:57:36.371Z,1011.24
2018-04-14T04:58:36.370Z,1011.19
2018-04-14T04:59:36.365Z,1011.19
2018-04-14T05:00:36.360Z,1011.18
2018-04-14T05:01:36.381Z,1011.21
2018-04-14T05:02:36.366Z,1011.20
2018-04-14T05:03:36.350Z,1011.22
2018-04-14T05:04:36.344Z,1011.28
2018-04-14T05:05:36.548Z,1011.28
2018-04-14T05:06:36.553Z,1011.29
2018-04-14T05:07:36.345Z,1011.28
2018-04-14T05:08:36.348Z,1011.32
2018-04-14T05:09:36.331Z,1011.29
2018-04-14T05:10:36.342Z,1011.34
2018-04-14T05:11:36.333Z,1011.32
2018-04-14T05:12:36.523Z,1011.32
2018-04-14T05:13:36.319Z,1011.30
2018-04-14T05:14:36.312Z,1011.34
2018-04-14T05:15:36.310Z,1011.34
2018-04-14T05:16:36.511Z,1011.37
2018-04-14T05:17:36.509Z,1011.35
2018-04-14T05:18:36.308Z,1011.40
2018-04-14T05:19:36.505Z,1011.42
2018-04-14T05:20:36.510Z,1011.43
2018-04-14T05:21:36.290Z,1011.44
2018-04-14T05:22:36.307Z,1011.50
2018-04-14T05:23:36.282Z,1011.54
2018-04-14T05:24:36.281Z,1011.54
2018-04-14T05:25:36.278Z,1011.53
2018-04-14T05:26:36.289Z,1011.52
2018-04-14T05:27:36.271Z,1011.53
2018-04-14T05:28:36.282Z,1011.49
2018-04-14T05:29:36.283Z,1011.45
2018-04-14T05:30:36.260Z,1011.42
2018-04-14T05:31:36.260Z,1011.49
2018-04-14T05:32:36.265Z,1011.49
2018-04-14T05:33:36.250Z,1011.52
2018-04-14T05:34:36.250Z,1011.56
2018-04-14T05:35:36.254Z,1011.53
2018-04-14T05:36:36.256Z,1011.56
2018-04-14T05:37:36.241Z,1011.55
2018-04-14T05:38:36.237Z,1011.58
2018-04-14T05:39:36.231Z,1011.66
2018-04-14T05:40:36.232Z,1011.66
2018-04-14T05:41:36.229Z,1011.67
2018-04-14T05:42:36.222Z,1011.67
2018-04-14T05:43:36.221Z,1011.71
2018-04-14T05:44:36.216Z,1011.68
2018-04-14T05:45:36.213Z,1011.73
2018-04-14T05:46:36.223Z,1011.72
2018-04-14T05:47:36.207Z,1011.76
2018-04-14T05:48:36.210Z,1011.76
2018-04-14T05:49:36.202Z,1011.79
2018-04-14T05:50:36.400Z,1011.80
2018-04-14T05:51:36.204Z,1011.85
2018-04-14T05:52:36.197Z,1011.84
2018-04-14T05:53:36.189Z,1011.86
2018-04-14T05:54:36.187Z,1011.86
2018-04-14T05:55:36.187Z,1011.90
2018-04-14T05:56:36.183Z,1011.92
2018-04-14T05:57:36.197Z,1011.94
2018-04-14T05:58:36.183Z,1011.94
2018-04-14T05:59:36.171Z,1011.96
2018-04-14T06:00:36.179Z,1011.91
2018-04-14T06:01:36.179Z,1011.93
2018-04-14T06:02:36.200Z,1011.95
2018-04-14T06:03:36.172Z,1011.90
2018-04-14T06:04:36.157Z,1011.93
2018-04-14T06:05:36.191Z,1011.90
2018-04-14T06:06:36.186Z,1011.92
2018-04-14T06:07:36.163Z,1011.94
2018-04-14T06:08:36.158Z,1011.93
2018-04-14T06:09:36.166Z,1011.93
2018-04-14T06:10:36.178Z,1011.92
2018-04-14T06:11:36.208Z,1011.91
2018-04-14T06:12:36.156Z,1011.96
2018-04-14T06:13:36.142Z,1011.95
2018-04-14T06:14:36.128Z,1011.99
2018-04-14T06:15:36.158Z,1012.00
2018-04-14T06:16:36.121Z,1012.00
2018-04-14T06:17:36.116Z,1011.97
2018-04-14T06:18:36.114Z,1012.00
2018-04-14T06:19:36.150Z,1012.03
2018-04-14T06:20:36.123Z,1012.07
2018-04-14T06:21:36.106Z,1012.05
2018-04-14T06:22:36.114Z,1012.13
2018-04-14T06:23:36.100Z,1012.10
2018-04-14T06:24:36.094Z,1012.08
2018-04-14T06:25:36.096Z,1012.14
2018-04-14T06:26:36.089Z,1012.15
2018-04-14T06:27:36.094Z,1012.19
2018-04-14T06:28:36.097Z,1012.17
2018-04-14T06:29:36.082Z,1012.20
2018-04-14T06:30:36.078Z,1012.24
2018-04-14T06:31:36.076Z,1012.28
2018-04-14T06:32:36.146Z,1012.32
2018-04-14T06:33:36.080Z,1012.36
2018-04-14T06:34:36.069Z,1012.35
2018-04-14T06:35:36.063Z,1012.34
2018-04-14T06:36:36.080Z,1012.38
2018-04-14T06:37:36.058Z,1012.34
2018-04-14T06:38:36.053Z,1012.37
2018-04-14T06:39:36.050Z,1012.41
2018-04-14T06:40:36.251Z,1012.41
2018-04-14T06:41:36.045Z,1012.44
2018-04-14T06:42:36.041Z,1012.43
2018-04-14T06:43:36.041Z,1012.44
2018-04-14T06:44:36.038Z,1012.48
2018-04-14T06:45:36.035Z,1012.47
2018-04-14T06:46:36.250Z,1012.47
2018-04-14T06:47:36.029Z,1012.49
2018-04-14T06:48:36.026Z,1012.49
2018-04-14T06:49:36.229Z,1012.49
2018-04-14T06:50:36.021Z,1012.49
2018-04-14T06:51:36.021Z,1012.54
2018-04-14T06:52:36.028Z,1012.54
2018-04-14T06:53:36.016Z,1012.55
2018-04-14T06:54:36.022Z,1012.57
2018-04-14T06:55:36.013Z,1012.56
2018-04-14T06:56:36.030Z,1012.57
2018-04-14T06:57:36.018Z,1012.58
2018-04-14T06:58:36.005Z,1012.59
2018-04-14T06:59:35.999Z,1012.63
2018-04-14T07:00:36.216Z,1012.68
2018-04-14T07:01:36.200Z,1012.65
2018-04-14T07:02:35.991Z,1012.66
2018-04-14T07:03:35.994Z,1012.65
2018-04-14T07:04:36.041Z,1012.66
2018-04-14T07:05:35.999Z,1012.70
2018-04-14T07:06:35.983Z,1012.73
2018-04-14T07:07:35.992Z,1012.77
2018-04-14T07:08:35.978Z,1012.79
2018-04-14T07:09:35.990Z,1012.76
2018-04-14T07:10:35.973Z,1012.75
2018-04-14T07:11:35.995Z,1012.72
2018-04-14T07:12:36.187Z,1012.73
2018-04-14T07:13:35.984Z,1012.76
2018-04-14T07:14:35.982Z,1012.76
2018-04-14T07:15:35.992Z,1012.79
2018-04-14T07:16:35.963Z,1012.79
2018-04-14T07:17:35.964Z,1012.78
2018-04-14T07:18:35.969Z,1012.83
2018-04-14T07:19:35.952Z,1012.77
2018-04-14T07:20:35.983Z,1012.80
2018-04-14T07:21:35.954Z,1012.87
2018-04-14T07:22:35.953Z,1012.88
2018-04-14T07:23:35.945Z,1012.94
2018-04-14T07:24:35.954Z,1012.90
2018-04-14T07:25:35.945Z,1012.94
2018-04-14T07:26:35.956Z,1012.91
2018-04-14T07:27:35.945Z,1012.96
2018-04-14T07:28:35.949Z,1012.98
2018-04-14T07:29:35.956Z,1012.99
2018-04-14T07:30:35.934Z,1013.01
2018-04-14T07:31:35.936Z,1013.10
2018-04-14T07:32:36.138Z,1013.11
2018-04-14T07:33:36.145Z,1013.11
2018-04-14T07:34:35.940Z,1013.11
2018-04-14T07:35:36.141Z,1013.13
2018-04-14T07:36:36.161Z,1013.11
2018-04-14T07:37:35.951Z,1013.13
2018-04-14T07:38:35.924Z,1013.11
2018-04-14T07:39:35.928Z,1013.17
2018-04-14T07:40:35.921Z,1013.18
2018-04-14T07:41:35.945Z,1013.16
2018-04-14T07:42:35.921Z,1013.15
2018-04-14T07:43:35.928Z,1013.17
2018-04-14T07:44:35.923Z,1013.15
2018-04-14T07:45:35.927Z,1013.12
2018-04-14T07:46:36.120Z,1013.15
2018-04-14T07:47:36.118Z,1013.16
2018-04-14T07:48:35.910Z,1013.13
2018-04-14T07:49:35.932Z,1013.13
2018-04-14T07:50:35.906Z,1013.15
2018-04-14T07:51:35.957Z,1013.20
2018-04-14T07:52:35.908Z,1013.17
2018-04-14T07:53:36.111Z,1013.17
2018-04-14T07:54:35.903Z,1013.20
2018-04-14T07:55:35.928Z,1013.21
2018-04-14T07:56:35.910Z,1013.23
2018-04-14T07:57:35.914Z,1013.24
2018-04-14T07:58:35.900Z,1013.28
2018-04-14T07:59:35.910Z,1013.27
2018-04-14T08:00:36.100Z,1013.26
2018-04-14T08:01:35.909Z,1013.23
2018-04-14T08:02:35.896Z,1013.27
2018-04-14T08:03:35.921Z,1013.36
2018-04-14T08:04:35.890Z,1013.34
2018-04-14T08:05:35.903Z,1013.32
2018-04-14T08:06:35.893Z,1013.38
2018-04-14T08:07:35.887Z,1013.38
2018-04-14T08:08:35.890Z,1013.37
2018-04-14T08:09:35.893Z,1013.40
2018-04-14T08:10:35.884Z,1013.39
2018-04-14T08:11:35.936Z,1013.40
2018-04-14T08:12:35.884Z,1013.46
2018-04-14T08:13:36.099Z,1013.45
2018-04-14T08:14:35.894Z,1013.45
2018-04-14T08:15:35.882Z,1013.44
2018-04-14T08:16:35.897Z,1013.38
2018-04-14T08:17:36.098Z,1013.40
2018-04-14T08:18:35.914Z,1013.39
2018-04-14T08:19:35.882Z,1013.44
2018-04-14T08:20:35.892Z,1013.45
2018-04-14T08:21:35.909Z,1013.42
2018-04-14T08:22:35.889Z,1013.43
2018-04-14T08:23:36.095Z,1013.44
2018-04-14T08:24:35.877Z,1013.42
2018-04-14T08:25:36.089Z,1013.42
2018-04-14T08:26:35.882Z,1013.47
2018-04-14T08:27:35.875Z,1013.47
2018-04-14T08:28:35.881Z,1013.41
2018-04-14T08:29:35.877Z,1013.51
2018-04-14T08:30:35.886Z,1013.47
2018-04-14T08:31:35.870Z,1013.49
2018-04-14T08:32:35.870Z,1013.46
2018-04-14T08:33:35.867Z,1013.49
2018-04-14T08:34:35.865Z,1013.49
2018-04-14T08:35:35.864Z,1013.49
2018-04-14T08:36:36.070Z,1013.50
2018-04-14T08:37:35.861Z,1013.50
2018-04-14T08:38:35.862Z,1013.54
2018-04-14T08:39:35.871Z,1013.48
2018-04-14T08:40:36.063Z,1013.50
2018-04-14T08:41:35.859Z,1013.50
2018-04-14T08:42:35.858Z,1013.52
2018-04-14T08:43:35.854Z,1013.49
2018-04-14T08:44:35.850Z,1013.48
2018-04-14T08:45:35.853Z,1013.53
2018-04-14T08:46:35.847Z,1013.51
2018-04-14T08:47:35.846Z,1013.50
2018-04-14T08:48:35.846Z,1013.54
2018-04-14T08:49:35.857Z,1013.53
2018-04-14T08:50:35.842Z,1013.56
2018-04-14T08:51:35.843Z,1013.60
2018-04-14T08:52:35.840Z,1013.56
2018-04-14T08:53:35.838Z,1013.57
2018-04-14T08:54:35.845Z,1013.58
2018-04-14T08:55:35.834Z,1013.58
2018-04-14T08:56:35.835Z,1013.56
2018-04-14T08:57:35.830Z,1013.56
2018-04-14T08:58:35.830Z,1013.57
2018-04-14T08:59:35.827Z,1013.58
2018-04-14T09:00:35.828Z,1013.55
2018-04-14T09:01:35.843Z,1013.55
2018-04-14T09:02:36.031Z,1013.59
2018-04-14T09:03:35.821Z,1013.57
2018-04-14T09:04:35.832Z,1013.63
2018-04-14T09:05:35.833Z,1013.62
2018-04-14T09:06:35.838Z,1013.60
2018-04-14T09:07:35.819Z,1013.61
2018-04-14T09:08:35.815Z,1013.62
2018-04-14T09:09:35.815Z,1013.58
2018-04-14T09:10:35.812Z,1013.60
2018-04-14T09:11:35.811Z,1013.60
2018-04-14T09:12:35.808Z,1013.60
2018-04-14T09:13:35.829Z,1013.61
2018-04-14T09:14:35.829Z,1013.59
2018-04-14T09:15:35.805Z,1013.59
2018-04-14T09:16:36.011Z,1013.58
2018-04-14T09:17:35.815Z,1013.60
2018-04-14T09:18:35.800Z,1013.57
2018-04-14T09:19:35.816Z,1013.61
2018-04-14T09:20:35.810Z,1013.56
2018-04-14T09:21:35.797Z,1013.60
2018-04-14T09:22:35.798Z,1013.60
2018-04-14T09:23:35.809Z,1013.59
2018-04-14T09:24:35.795Z,1013.59
2018-04-14T09:25:35.812Z,1013.57
2018-04-14T09:26:35.813Z,1013.56
2018-04-14T09:27:35.789Z,1013.58
2018-04-14T09:28:35.800Z,1013.60
2018-04-14T09:29:35.991Z,1013.61
2018-04-14T09:30:35.786Z,1013.58
2018-04-14T09:31:35.794Z,1013.60
2018-04-14T09:32:35.779Z,1013.60
2018-04-14T09:33:35.793Z,1013.62
2018-04-14T09:34:35.775Z,1013.62
2018-04-14T09:35:35.777Z,1013.61
2018-04-14T09:36:36.004Z,1013.65
2018-04-14T09:37:35.775Z,1013.67
2018-04-14T09:38:35.773Z,1013.64
2018-04-14T09:39:35.985Z,1013.64
2018-04-14T09:40:35.779Z,1013.67
2018-04-14T09:41:35.784Z,1013.65
2018-04-14T09:42:35.776Z,1013.66
2018-04-14T09:43:35.984Z,1013.69
2018-04-14T09:44:35.765Z,1013.65
2018-04-14T09:45:35.777Z,1013.63
2018-04-14T09:46:35.774Z,1013.62
2018-04-14T09:47:35.982Z,1013.62
2018-04-14T09:48:35.758Z,1013.63
2018-04-14T09:49:35.975Z,1013.63
2018-04-14T09:50:35.756Z,1013.64
2018-04-14T09:51:35.754Z,1013.67
2018-04-14T09:52:35.768Z,1013.62
2018-04-14T09:53:35.756Z,1013.65
2018-04-14T09:54:35.764Z,1013.65
2018-04-14T09:55:35.774Z,1013.63
2018-04-14T09:56:35.762Z,1013.69
2018-04-14T09:57:35.752Z,1013.71
2018-04-14T09:58:35.744Z,1013.72
2018-04-14T09:59:35.758Z,1013.73
2018-04-14T10:00:35.745Z,1013.77
2018-04-14T10:01:35.745Z,1013.78
2018-04-14T10:02:35.741Z,1013.77
2018-04-14T10:03:35.754Z,1013.77
2018-04-14T10:04:35.750Z,1013.82
2018-04-14T10:05:35.805Z,1013.79
2018-04-14T10:06:35.953Z,1013.77
2018-04-14T10:07:35.940Z,1013.77
2018-04-14T10:08:35.745Z,1013.73
2018-04-14T10:09:35.734Z,1013.70
2018-04-14T10:10:35.754Z,1013.68
2018-04-14T10:11:35.736Z,1013.71
2018-04-14T10:12:35.730Z,1013.66
2018-04-14T10:13:35.742Z,1013.64
2018-04-14T10:14:35.933Z,1013.66
2018-04-14T10:15:35.728Z,1013.67
2018-04-14T10:16:35.943Z,1013.66
2018-04-14T10:17:35.725Z,1013.68
2018-04-14T10:18:35.723Z,1013.65
2018-04-14T10:19:35.734Z,1013.64
2018-04-14T10:20:35.722Z,1013.61
2018-04-14T10:21:35.927Z,1013.65
2018-04-14T10:22:35.719Z,1013.62
2018-04-14T10:23:35.935Z,1013.62
2018-04-14T10:24:35.716Z,1013.61
2018-04-14T10:25:35.720Z,1013.62
2018-04-14T10:26:35.736Z,1013.62
2018-04-14T10:27:35.744Z,1013.58
2018-04-14T10:28:35.715Z,1013.61
2018-04-14T10:29:35.731Z,1013.60
2018-04-14T10:30:35.720Z,1013.62
2018-04-14T10:31:35.708Z,1013.61
2018-04-14T10:32:35.708Z,1013.63
2018-04-14T10:33:35.711Z,1013.66
2018-04-14T10:34:35.705Z,1013.64
2018-04-14T10:35:35.713Z,1013.66
2018-04-14T10:36:35.705Z,1013.64
2018-04-14T10:37:35.715Z,1013.64
2018-04-14T10:38:35.716Z,1013.62
2018-04-14T10:39:35.701Z,1013.56
2018-04-14T10:40:35.712Z,1013.57
2018-04-14T10:41:35.699Z,1013.56
2018-04-14T10:42:35.706Z,1013.57
2018-04-14T10:43:35.699Z,1013.53
2018-04-14T10:44:35.720Z,1013.51
2018-04-14T10:45:35.708Z,1013.54
2018-04-14T10:46:35.727Z,1013.54
2018-04-14T10:47:35.707Z,1013.54
2018-04-14T10:48:35.696Z,1013.57
2018-04-14T10:49:35.693Z,1013.56
2018-04-14T10:50:35.893Z,1013.52
2018-04-14T10:51:35.687Z,1013.46
2018-04-14T10:52:35.687Z,1013.50
2018-04-14T10:53:35.687Z,1013.50
2018-04-14T10:54:35.687Z,1013.48
2018-04-14T10:55:35.686Z,1013.45
2018-04-14T10:56:35.888Z,1013.45
2018-04-14T10:57:35.687Z,1013.43
2018-04-14T10:58:35.680Z,1013.48
2018-04-14T10:59:35.686Z,1013.45
2018-04-14T11:00:35.679Z,1013.46
2018-04-14T11:01:35.694Z,1013.49
2018-04-14T11:02:35.688Z,1013.49
2018-04-14T11:03:35.680Z,1013.48
2018-04-14T11:04:35.878Z,1013.49
2018-04-14T11:05:35.674Z,1013.50
2018-04-14T11:06:35.673Z,1013.49
2018-04-14T11:07:35.895Z,1013.53
2018-04-14T11:08:35.682Z,1013.51
2018-04-14T11:09:35.687Z,1013.50
2018-04-14T11:10:35.670Z,1013.51
2018-04-14T11:11:35.670Z,1013.50
2018-04-14T11:12:35.667Z,1013.52
2018-04-14T11:13:35.672Z,1013.51
2018-04-14T11:14:35.683Z,1013.51
2018-04-14T11:15:35.665Z,1013.51
2018-04-14T11:16:35.662Z,1013.53
2018-04-14T11:17:35.661Z,1013.50
2018-04-14T11:18:35.661Z,1013.50
2018-04-14T11:19:35.672Z,1013.49
2018-04-14T11:20:35.687Z,1013.47
2018-04-14T11:21:35.660Z,1013.50
2018-04-14T11:22:35.664Z,1013.52
2018-04-14T11:23:35.654Z,1013.55
2018-04-14T11:24:35.666Z,1013.52
2018-04-14T11:25:35.653Z,1013.50
2018-04-14T11:26:35.651Z,1013.49
2018-04-14T11:27:35.648Z,1013.50
2018-04-14T11:28:35.852Z,1013.46
2018-04-14T11:29:35.648Z,1013.48
2018-04-14T11:30:35.645Z,1013.51
2018-04-14T11:31:35.645Z,1013.49
2018-04-14T11:32:35.643Z,1013.46
2018-04-14T11:33:35.641Z,1013.45
2018-04-14T11:34:35.655Z,1013.41
2018-04-14T11:35:35.854Z,1013.46
2018-04-14T11:36:35.649Z,1013.42
2018-04-14T11:37:35.660Z,1013.42
2018-04-14T11:38:35.655Z,1013.43
2018-04-14T11:39:35.646Z,1013.40
2018-04-14T11:40:35.633Z,1013.41
2018-04-14T11:41:35.652Z,1013.42
2018-04-14T11:42:35.638Z,1013.43
2018-04-14T11:43:35.831Z,1013.43
2018-04-14T11:44:35.628Z,1013.41
2018-04-14T11:45:35.626Z,1013.41
2018-04-14T11:46:35.634Z,1013.40
2018-04-14T11:47:35.624Z,1013.40
2018-04-14T11:48:35.826Z,1013.41
2018-04-14T11:49:35.621Z,1013.44
2018-04-14T11:50:35.639Z,1013.43
2018-04-14T11:51:35.620Z,1013.49
2018-04-14T11:52:35.627Z,1013.48
2018-04-14T11:53:35.832Z,1013.46
2018-04-14T11:54:35.616Z,1013.45
2018-04-14T11:55:35.625Z,1013.46
2018-04-14T11:56:35.626Z,1013.44
2018-04-14T11:57:35.616Z,1013.44
2018-04-14T11:58:35.610Z,1013.46
2018-04-14T11:59:35.624Z,1013.50
2018-04-14T12:00:35.608Z,1013.44
2018-04-14T12:01:35.811Z,1013.43
2018-04-14T12:02:35.608Z,1013.43
2018-04-14T12:03:35.616Z,1013.42
2018-04-14T12:04:35.604Z,1013.39
2018-04-14T12:05:35.818Z,1013.41
2018-04-14T12:06:35.605Z,1013.44
2018-04-14T12:07:35.617Z,1013.40
2018-04-14T12:08:35.817Z,1013.42